sensor_id;sensor_type;location;lat;lon;timestamp;P1;durP1;ratioP1;P2;durP2;ratioP2
70832;SDS011;71099;59.528;17.886;2024-03-22T00:00:12;4.80;;;3.45;;
70832;SDS011;71099;59.528;17.886;2024-03-22T00:02:38;4.90;;;3.90;;
70832;SDS011;71099;59.528;17.886;2024-03-22T00:05:03;4.47;;;3.33;;
70832;SDS011;71099;59.528;17.886;2024-03-22T00:07:29;5.88;;;4.05;;
70832;SDS011;71099;59.528;17.886;2024-03-22T00:09:55;3.65;;;2.88;;
70832;SDS011;71099;59.528;17.886;2024-03-22T00:12:20;3.88;;;2.72;;
70832;SDS011;71099;59.528;17.886;2024-03-22T00:14:45;3.85;;;3.33;;
70832;SDS011;71099;59.528;17.886;2024-03-22T00:17:11;5.43;;;3.13;;
70832;SDS011;71099;59.528;17.886;2024-03-22T00:19:37;5.20;;;3.40;;
70832;SDS011;71099;59.528;17.886;2024-03-22T00:22:02;4.28;;;3.33;;
70832;SDS011;71099;59.528;17.886;2024-03-22T00:24:28;3.60;;;2.85;;
70832;SDS011;71099;59.528;17.886;2024-03-22T00:26:53;5.10;;;3.33;;
70832;SDS011;71099;59.528;17.886;2024-03-22T00:29:18;7.78;;;3.47;;
70832;SDS011;71099;59.528;17.886;2024-03-22T00:31:44;5.75;;;3.83;;
70832;SDS011;71099;59.528;17.886;2024-03-22T00:34:09;6.60;;;3.42;;
70832;SDS011;71099;59.528;17.886;2024-03-22T00:36:35;3.58;;;3.28;;
70832;SDS011;71099;59.528;17.886;2024-03-22T00:39:00;6.47;;;4.30;;
70832;SDS011;71099;59.528;17.886;2024-03-22T00:41:26;3.42;;;3.13;;
70832;SDS011;71099;59.528;17.886;2024-03-22T00:43:51;6.45;;;3.60;;
70832;SDS011;71099;59.528;17.886;2024-03-22T00:46:16;4.50;;;3.17;;
70832;SDS011;71099;59.528;17.886;2024-03-22T00:48:42;9.05;;;3.60;;
70832;SDS011;71099;59.528;17.886;2024-03-22T00:51:07;5.18;;;3.85;;
70832;SDS011;71099;59.528;17.886;2024-03-22T00:53:33;4.70;;;3.88;;
70832;SDS011;71099;59.528;17.886;2024-03-22T00:55:58;4.80;;;3.40;;
70832;SDS011;71099;59.528;17.886;2024-03-22T00:58:25;5.97;;;3.80;;
70832;SDS011;71099;59.528;17.886;2024-03-22T01:00:54;4.55;;;3.38;;
70832;SDS011;71099;59.528;17.886;2024-03-22T01:03:19;6.03;;;4.65;;
70832;SDS011;71099;59.528;17.886;2024-03-22T01:05:45;6.28;;;4.28;;
70832;SDS011;71099;59.528;17.886;2024-03-22T01:08:11;6.13;;;4.45;;
70832;SDS011;71099;59.528;17.886;2024-03-22T01:10:37;6.75;;;4.30;;
70832;SDS011;71099;59.528;17.886;2024-03-22T01:13:02;5.95;;;4.43;;
70832;SDS011;71099;59.528;17.886;2024-03-22T01:15:31;6.10;;;4.25;;
70832;SDS011;71099;59.528;17.886;2024-03-22T01:17:59;6.93;;;4.55;;
70832;SDS011;71099;59.528;17.886;2024-03-22T01:20:25;9.48;;;5.22;;
70832;SDS011;71099;59.528;17.886;2024-03-22T01:22:50;8.90;;;4.85;;
70832;SDS011;71099;59.528;17.886;2024-03-22T01:25:23;8.88;;;5.55;;
70832;SDS011;71099;59.528;17.886;2024-03-22T01:27:49;8.27;;;5.50;;
70832;SDS011;71099;59.528;17.886;2024-03-22T01:30:14;8.77;;;4.95;;
70832;SDS011;71099;59.528;17.886;2024-03-22T01:32:40;8.48;;;5.15;;
70832;SDS011;71099;59.528;17.886;2024-03-22T01:35:05;9.88;;;5.10;;
70832;SDS011;71099;59.528;17.886;2024-03-22T01:37:31;8.82;;;5.78;;
70832;SDS011;71099;59.528;17.886;2024-03-22T01:39:57;9.90;;;5.75;;
70832;SDS011;71099;59.528;17.886;2024-03-22T01:42:22;8.70;;;5.45;;
70832;SDS011;71099;59.528;17.886;2024-03-22T01:44:48;13.27;;;5.88;;
70832;SDS011;71099;59.528;17.886;2024-03-22T01:47:14;9.20;;;5.38;;
70832;SDS011;71099;59.528;17.886;2024-03-22T01:49:40;8.85;;;5.53;;
70832;SDS011;71099;59.528;17.886;2024-03-22T01:52:06;7.45;;;4.85;;
70832;SDS011;71099;59.528;17.886;2024-03-22T01:54:32;9.15;;;5.88;;
70832;SDS011;71099;59.528;17.886;2024-03-22T01:57:00;9.27;;;5.50;;
70832;SDS011;71099;59.528;17.886;2024-03-22T01:59:26;8.75;;;5.35;;
70832;SDS011;71099;59.528;17.886;2024-03-22T02:01:54;8.45;;;5.68;;
70832;SDS011;71099;59.528;17.886;2024-03-22T02:04:19;9.00;;;5.80;;
70832;SDS011;71099;59.528;17.886;2024-03-22T02:06:45;11.90;;;5.78;;
70832;SDS011;71099;59.528;17.886;2024-03-22T02:09:10;8.13;;;5.22;;
70832;SDS011;71099;59.528;17.886;2024-03-22T02:11:36;13.05;;;5.45;;
70832;SDS011;71099;59.528;17.886;2024-03-22T02:14:05;8.90;;;4.90;;
70832;SDS011;71099;59.528;17.886;2024-03-22T02:16:30;11.20;;;5.55;;
70832;SDS011;71099;59.528;17.886;2024-03-22T02:18:56;8.13;;;4.80;;
70832;SDS011;71099;59.528;17.886;2024-03-22T02:21:21;7.95;;;4.88;;
70832;SDS011;71099;59.528;17.886;2024-03-22T02:23:47;10.02;;;4.82;;
70832;SDS011;71099;59.528;17.886;2024-03-22T02:26:12;7.63;;;5.20;;
70832;SDS011;71099;59.528;17.886;2024-03-22T02:28:37;7.78;;;5.20;;
70832;SDS011;71099;59.528;17.886;2024-03-22T02:31:03;7.70;;;5.63;;
70832;SDS011;71099;59.528;17.886;2024-03-22T02:33:29;9.05;;;5.22;;
70832;SDS011;71099;59.528;17.886;2024-03-22T02:35:55;9.38;;;4.93;;
70832;SDS011;71099;59.528;17.886;2024-03-22T02:38:21;10.80;;;4.47;;
70832;SDS011;71099;59.528;17.886;2024-03-22T02:40:48;8.48;;;4.30;;
70832;SDS011;71099;59.528;17.886;2024-03-22T02:43:14;11.50;;;4.70;;
70832;SDS011;71099;59.528;17.886;2024-03-22T02:45:40;7.85;;;4.90;;
70832;SDS011;71099;59.528;17.886;2024-03-22T02:48:05;7.22;;;3.97;;
70832;SDS011;71099;59.528;17.886;2024-03-22T02:50:35;7.13;;;5.10;;
70832;SDS011;71099;59.528;17.886;2024-03-22T02:53:01;6.47;;;4.18;;
70832;SDS011;71099;59.528;17.886;2024-03-22T02:55:27;5.40;;;3.35;;
70832;SDS011;71099;59.528;17.886;2024-03-22T02:57:53;7.43;;;4.53;;
70832;SDS011;71099;59.528;17.886;2024-03-22T03:00:18;8.98;;;4.00;;
70832;SDS011;71099;59.528;17.886;2024-03-22T03:02:45;5.40;;;3.95;;
70832;SDS011;71099;59.528;17.886;2024-03-22T03:05:11;6.32;;;3.85;;
70832;SDS011;71099;59.528;17.886;2024-03-22T03:07:36;5.40;;;3.58;;
70832;SDS011;71099;59.528;17.886;2024-03-22T03:10:02;6.38;;;3.60;;
70832;SDS011;71099;59.528;17.886;2024-03-22T03:12:28;6.32;;;3.28;;
70832;SDS011;71099;59.528;17.886;2024-03-22T03:14:53;4.03;;;2.85;;
70832;SDS011;71099;59.528;17.886;2024-03-22T03:17:18;5.25;;;3.17;;
70832;SDS011;71099;59.528;17.886;2024-03-22T03:19:44;5.15;;;3.30;;
70832;SDS011;71099;59.528;17.886;2024-03-22T03:22:09;3.97;;;3.10;;
70832;SDS011;71099;59.528;17.886;2024-03-22T03:24:35;3.55;;;2.63;;
70832;SDS011;71099;59.528;17.886;2024-03-22T03:27:01;3.92;;;3.00;;
70832;SDS011;71099;59.528;17.886;2024-03-22T03:29:27;3.28;;;2.53;;
70832;SDS011;71099;59.528;17.886;2024-03-22T03:31:53;3.72;;;2.60;;
70832;SDS011;71099;59.528;17.886;2024-03-22T03:34:18;4.90;;;2.85;;
70832;SDS011;71099;59.528;17.886;2024-03-22T03:36:45;3.90;;;2.92;;
70832;SDS011;71099;59.528;17.886;2024-03-22T03:39:14;4.80;;;3.67;;
70832;SDS011;71099;59.528;17.886;2024-03-22T03:41:39;3.25;;;1.80;;
70832;SDS011;71099;59.528;17.886;2024-03-22T03:44:04;3.50;;;2.20;;
70832;SDS011;71099;59.528;17.886;2024-03-22T03:46:30;6.88;;;2.80;;
70832;SDS011;71099;59.528;17.886;2024-03-22T03:48:56;4.25;;;2.85;;
70832;SDS011;71099;59.528;17.886;2024-03-22T03:51:22;3.50;;;2.97;;
70832;SDS011;71099;59.528;17.886;2024-03-22T03:53:47;4.32;;;2.50;;
70832;SDS011;71099;59.528;17.886;2024-03-22T03:56:13;3.60;;;3.25;;
70832;SDS011;71099;59.528;17.886;2024-03-22T03:58:38;2.88;;;2.17;;
70832;SDS011;71099;59.528;17.886;2024-03-22T04:01:07;4.28;;;2.65;;
70832;SDS011;71099;59.528;17.886;2024-03-22T04:03:33;3.47;;;2.25;;
70832;SDS011;71099;59.528;17.886;2024-03-22T04:05:58;6.22;;;2.28;;
70832;SDS011;71099;59.528;17.886;2024-03-22T04:08:25;4.80;;;2.53;;
70832;SDS011;71099;59.528;17.886;2024-03-22T04:10:54;5.05;;;3.13;;
70832;SDS011;71099;59.528;17.886;2024-03-22T04:13:21;4.30;;;2.83;;
70832;SDS011;71099;59.528;17.886;2024-03-22T04:15:51;4.32;;;2.67;;
70832;SDS011;71099;59.528;17.886;2024-03-22T04:18:16;5.07;;;3.15;;
70832;SDS011;71099;59.528;17.886;2024-03-22T04:20:42;3.55;;;2.53;;
70832;SDS011;71099;59.528;17.886;2024-03-22T04:23:09;3.83;;;2.75;;
70832;SDS011;71099;59.528;17.886;2024-03-22T04:25:34;4.82;;;3.55;;
70832;SDS011;71099;59.528;17.886;2024-03-22T04:28:00;4.60;;;2.80;;
70832;SDS011;71099;59.528;17.886;2024-03-22T04:30:25;4.78;;;3.45;;
70832;SDS011;71099;59.528;17.886;2024-03-22T04:32:51;5.13;;;3.40;;
70832;SDS011;71099;59.528;17.886;2024-03-22T04:35:16;4.78;;;3.28;;
70832;SDS011;71099;59.528;17.886;2024-03-22T04:37:42;4.97;;;3.17;;
70832;SDS011;71099;59.528;17.886;2024-03-22T04:40:08;7.07;;;3.92;;
70832;SDS011;71099;59.528;17.886;2024-03-22T04:42:35;4.30;;;3.30;;
70832;SDS011;71099;59.528;17.886;2024-03-22T04:45:00;5.47;;;3.78;;
70832;SDS011;71099;59.528;17.886;2024-03-22T04:47:26;4.93;;;3.58;;
70832;SDS011;71099;59.528;17.886;2024-03-22T04:49:52;6.80;;;4.15;;
70832;SDS011;71099;59.528;17.886;2024-03-22T04:52:17;4.85;;;3.47;;
70832;SDS011;71099;59.528;17.886;2024-03-22T04:54:42;6.22;;;4.75;;
70832;SDS011;71099;59.528;17.886;2024-03-22T04:57:08;6.97;;;4.68;;
70832;SDS011;71099;59.528;17.886;2024-03-22T04:59:33;7.03;;;4.55;;
70832;SDS011;71099;59.528;17.886;2024-03-22T05:01:59;5.28;;;3.40;;
70832;SDS011;71099;59.528;17.886;2024-03-22T05:04:24;6.35;;;4.22;;
70832;SDS011;71099;59.528;17.886;2024-03-22T05:06:49;7.47;;;4.47;;
70832;SDS011;71099;59.528;17.886;2024-03-22T05:09:15;7.28;;;4.85;;
70832;SDS011;71099;59.528;17.886;2024-03-22T05:11:40;8.88;;;4.20;;
70832;SDS011;71099;59.528;17.886;2024-03-22T05:14:06;8.25;;;5.00;;
70832;SDS011;71099;59.528;17.886;2024-03-22T05:16:31;8.95;;;5.20;;
70832;SDS011;71099;59.528;17.886;2024-03-22T05:18:56;8.70;;;5.25;;
70832;SDS011;71099;59.528;17.886;2024-03-22T05:21:22;5.68;;;3.78;;
70832;SDS011;71099;59.528;17.886;2024-03-22T05:23:47;5.53;;;3.95;;
70832;SDS011;71099;59.528;17.886;2024-03-22T05:26:13;5.43;;;3.97;;
70832;SDS011;71099;59.528;17.886;2024-03-22T05:28:38;8.85;;;5.05;;
70832;SDS011;71099;59.528;17.886;2024-03-22T05:31:03;8.57;;;4.65;;
70832;SDS011;71099;59.528;17.886;2024-03-22T05:33:29;18.98;;;6.07;;
70832;SDS011;71099;59.528;17.886;2024-03-22T05:35:55;6.45;;;4.22;;
70832;SDS011;71099;59.528;17.886;2024-03-22T05:38:20;8.05;;;4.53;;
70832;SDS011;71099;59.528;17.886;2024-03-22T05:40:46;11.48;;;4.53;;
70832;SDS011;71099;59.528;17.886;2024-03-22T05:43:12;8.15;;;4.10;;
70832;SDS011;71099;59.528;17.886;2024-03-22T05:45:38;7.45;;;4.82;;
70832;SDS011;71099;59.528;17.886;2024-03-22T05:48:04;6.28;;;3.92;;
70832;SDS011;71099;59.528;17.886;2024-03-22T05:50:30;6.38;;;4.10;;
70832;SDS011;71099;59.528;17.886;2024-03-22T05:52:55;7.38;;;4.47;;
70832;SDS011;71099;59.528;17.886;2024-03-22T05:55:21;8.00;;;4.57;;
70832;SDS011;71099;59.528;17.886;2024-03-22T05:57:46;6.47;;;4.35;;
70832;SDS011;71099;59.528;17.886;2024-03-22T06:00:12;7.57;;;4.15;;
70832;SDS011;71099;59.528;17.886;2024-03-22T06:02:38;7.80;;;4.55;;
70832;SDS011;71099;59.528;17.886;2024-03-22T06:05:04;6.57;;;4.35;;
70832;SDS011;71099;59.528;17.886;2024-03-22T06:07:30;9.60;;;5.10;;
70832;SDS011;71099;59.528;17.886;2024-03-22T06:10:00;5.35;;;4.22;;
70832;SDS011;71099;59.528;17.886;2024-03-22T06:12:26;4.40;;;3.42;;
70832;SDS011;71099;59.528;17.886;2024-03-22T06:14:51;5.07;;;3.88;;
70832;SDS011;71099;59.528;17.886;2024-03-22T06:17:16;5.95;;;3.78;;
70832;SDS011;71099;59.528;17.886;2024-03-22T06:19:42;9.38;;;4.07;;
70832;SDS011;71099;59.528;17.886;2024-03-22T06:22:07;5.68;;;3.78;;
70832;SDS011;71099;59.528;17.886;2024-03-22T06:24:33;7.30;;;4.57;;
70832;SDS011;71099;59.528;17.886;2024-03-22T06:26:58;5.32;;;3.45;;
70832;SDS011;71099;59.528;17.886;2024-03-22T06:29:23;5.05;;;3.80;;
70832;SDS011;71099;59.528;17.886;2024-03-22T06:31:49;4.90;;;3.42;;
70832;SDS011;71099;59.528;17.886;2024-03-22T06:34:15;7.18;;;4.75;;
70832;SDS011;71099;59.528;17.886;2024-03-22T06:36:40;11.05;;;5.05;;
70832;SDS011;71099;59.528;17.886;2024-03-22T06:39:07;5.80;;;4.03;;
70832;SDS011;71099;59.528;17.886;2024-03-22T06:41:34;9.88;;;4.13;;
70832;SDS011;71099;59.528;17.886;2024-03-22T06:43:59;8.07;;;4.03;;
70832;SDS011;71099;59.528;17.886;2024-03-22T06:46:25;5.57;;;3.30;;
70832;SDS011;71099;59.528;17.886;2024-03-22T06:48:51;5.85;;;3.80;;
70832;SDS011;71099;59.528;17.886;2024-03-22T06:51:17;4.47;;;3.40;;
70832;SDS011;71099;59.528;17.886;2024-03-22T06:53:43;6.57;;;3.20;;
70832;SDS011;71099;59.528;17.886;2024-03-22T06:56:08;4.90;;;3.42;;
70832;SDS011;71099;59.528;17.886;2024-03-22T06:58:35;8.23;;;3.58;;
70832;SDS011;71099;59.528;17.886;2024-03-22T07:01:01;3.78;;;2.88;;
70832;SDS011;71099;59.528;17.886;2024-03-22T07:03:27;6.55;;;3.60;;
70832;SDS011;71099;59.528;17.886;2024-03-22T07:05:52;5.03;;;3.63;;
70832;SDS011;71099;59.528;17.886;2024-03-22T07:08:17;6.32;;;3.28;;
70832;SDS011;71099;59.528;17.886;2024-03-22T07:10:43;6.22;;;3.22;;
70832;SDS011;71099;59.528;17.886;2024-03-22T07:13:10;4.75;;;2.90;;
70832;SDS011;71099;59.528;17.886;2024-03-22T07:15:36;5.22;;;3.67;;
70832;SDS011;71099;59.528;17.886;2024-03-22T07:18:01;7.13;;;3.75;;
70832;SDS011;71099;59.528;17.886;2024-03-22T07:20:28;7.80;;;4.30;;
70832;SDS011;71099;59.528;17.886;2024-03-22T07:22:53;9.25;;;4.55;;
70832;SDS011;71099;59.528;17.886;2024-03-22T07:25:19;5.32;;;3.13;;
70832;SDS011;71099;59.528;17.886;2024-03-22T07:27:44;3.97;;;3.28;;
70832;SDS011;71099;59.528;17.886;2024-03-22T07:30:11;5.50;;;3.85;;
70832;SDS011;71099;59.528;17.886;2024-03-22T07:32:37;7.13;;;4.45;;
70832;SDS011;71099;59.528;17.886;2024-03-22T07:35:02;4.68;;;3.83;;
70832;SDS011;71099;59.528;17.886;2024-03-22T07:37:28;7.15;;;4.25;;
70832;SDS011;71099;59.528;17.886;2024-03-22T07:39:54;4.50;;;3.17;;
70832;SDS011;71099;59.528;17.886;2024-03-22T07:42:19;6.28;;;3.22;;
70832;SDS011;71099;59.528;17.886;2024-03-22T07:44:45;3.78;;;2.75;;
70832;SDS011;71099;59.528;17.886;2024-03-22T07:47:11;4.72;;;3.55;;
70832;SDS011;71099;59.528;17.886;2024-03-22T07:49:36;4.00;;;3.30;;
70832;SDS011;71099;59.528;17.886;2024-03-22T07:52:02;6.22;;;3.03;;
70832;SDS011;71099;59.528;17.886;2024-03-22T07:54:27;3.65;;;2.80;;
70832;SDS011;71099;59.528;17.886;2024-03-22T07:56:53;7.10;;;3.78;;
70832;SDS011;71099;59.528;17.886;2024-03-22T07:59:18;4.70;;;3.60;;
70832;SDS011;71099;59.528;17.886;2024-03-22T08:01:44;4.30;;;2.88;;
70832;SDS011;71099;59.528;17.886;2024-03-22T08:04:09;4.25;;;2.85;;
70832;SDS011;71099;59.528;17.886;2024-03-22T08:06:35;4.20;;;3.08;;
70832;SDS011;71099;59.528;17.886;2024-03-22T08:09:00;6.25;;;3.00;;
70832;SDS011;71099;59.528;17.886;2024-03-22T08:11:27;3.08;;;2.40;;
70832;SDS011;71099;59.528;17.886;2024-03-22T08:13:53;5.88;;;2.83;;
70832;SDS011;71099;59.528;17.886;2024-03-22T08:16:26;4.15;;;2.80;;
70832;SDS011;71099;59.528;17.886;2024-03-22T08:18:52;4.82;;;3.10;;
70832;SDS011;71099;59.528;17.886;2024-03-22T08:21:17;4.60;;;2.47;;
70832;SDS011;71099;59.528;17.886;2024-03-22T08:23:43;4.85;;;2.90;;
70832;SDS011;71099;59.528;17.886;2024-03-22T08:26:08;5.28;;;3.00;;
70832;SDS011;71099;59.528;17.886;2024-03-22T08:28:34;2.85;;;2.00;;
70832;SDS011;71099;59.528;17.886;2024-03-22T08:31:03;3.42;;;2.17;;
70832;SDS011;71099;59.528;17.886;2024-03-22T08:33:29;3.08;;;2.25;;
70832;SDS011;71099;59.528;17.886;2024-03-22T08:35:54;3.00;;;1.88;;
70832;SDS011;71099;59.528;17.886;2024-03-22T08:38:20;3.03;;;2.25;;
70832;SDS011;71099;59.528;17.886;2024-03-22T08:40:45;3.67;;;2.53;;
70832;SDS011;71099;59.528;17.886;2024-03-22T08:43:11;3.65;;;2.50;;
70832;SDS011;71099;59.528;17.886;2024-03-22T08:45:36;3.20;;;1.92;;
70832;SDS011;71099;59.528;17.886;2024-03-22T08:48:01;2.95;;;1.85;;
70832;SDS011;71099;59.528;17.886;2024-03-22T08:50:27;2.35;;;1.77;;
70832;SDS011;71099;59.528;17.886;2024-03-22T08:52:53;5.72;;;2.40;;
70832;SDS011;71099;59.528;17.886;2024-03-22T08:55:18;2.78;;;2.45;;
70832;SDS011;71099;59.528;17.886;2024-03-22T08:57:44;3.45;;;2.40;;
70832;SDS011;71099;59.528;17.886;2024-03-22T09:00:09;4.32;;;2.38;;
70832;SDS011;71099;59.528;17.886;2024-03-22T09:02:35;2.80;;;2.20;;
70832;SDS011;71099;59.528;17.886;2024-03-22T09:05:02;3.38;;;2.38;;
70832;SDS011;71099;59.528;17.886;2024-03-22T09:07:27;2.78;;;2.35;;
70832;SDS011;71099;59.528;17.886;2024-03-22T09:09:52;4.20;;;2.28;;
70832;SDS011;71099;59.528;17.886;2024-03-22T09:12:18;4.38;;;2.38;;
70832;SDS011;71099;59.528;17.886;2024-03-22T09:14:44;3.63;;;2.60;;
70832;SDS011;71099;59.528;17.886;2024-03-22T09:17:10;2.67;;;2.15;;
70832;SDS011;71099;59.528;17.886;2024-03-22T09:19:35;3.97;;;2.28;;
70832;SDS011;71099;59.528;17.886;2024-03-22T09:22:01;3.55;;;2.33;;
70832;SDS011;71099;59.528;17.886;2024-03-22T09:24:26;8.00;;;4.03;;
70832;SDS011;71099;59.528;17.886;2024-03-22T09:26:52;5.28;;;2.60;;
70832;SDS011;71099;59.528;17.886;2024-03-22T09:29:18;3.22;;;2.58;;
70832;SDS011;71099;59.528;17.886;2024-03-22T09:31:43;3.47;;;2.55;;
70832;SDS011;71099;59.528;17.886;2024-03-22T09:34:09;3.42;;;2.85;;
70832;SDS011;71099;59.528;17.886;2024-03-22T09:36:34;5.38;;;3.30;;
70832;SDS011;71099;59.528;17.886;2024-03-22T09:39:01;4.25;;;3.40;;
70832;SDS011;71099;59.528;17.886;2024-03-22T09:41:27;4.85;;;3.40;;
70832;SDS011;71099;59.528;17.886;2024-03-22T09:43:54;5.70;;;3.83;;
70832;SDS011;71099;59.528;17.886;2024-03-22T09:46:23;6.05;;;3.72;;
70832;SDS011;71099;59.528;17.886;2024-03-22T09:48:49;6.80;;;4.03;;
70832;SDS011;71099;59.528;17.886;2024-03-22T09:51:15;5.30;;;3.60;;
70832;SDS011;71099;59.528;17.886;2024-03-22T09:53:43;6.88;;;4.22;;
70832;SDS011;71099;59.528;17.886;2024-03-22T09:56:09;7.68;;;4.65;;
70832;SDS011;71099;59.528;17.886;2024-03-22T09:58:40;8.90;;;5.00;;
70832;SDS011;71099;59.528;17.886;2024-03-22T10:01:06;7.25;;;4.80;;
70832;SDS011;71099;59.528;17.886;2024-03-22T10:03:32;7.22;;;5.03;;
70832;SDS011;71099;59.528;17.886;2024-03-22T10:05:58;8.20;;;5.60;;
70832;SDS011;71099;59.528;17.886;2024-03-22T10:08:23;6.75;;;5.00;;
70832;SDS011;71099;59.528;17.886;2024-03-22T10:10:49;10.57;;;5.00;;
70832;SDS011;71099;59.528;17.886;2024-03-22T10:13:14;9.48;;;5.57;;
70832;SDS011;71099;59.528;17.886;2024-03-22T10:15:39;16.23;;;6.70;;
70832;SDS011;71099;59.528;17.886;2024-03-22T10:18:05;11.15;;;5.50;;
70832;SDS011;71099;59.528;17.886;2024-03-22T10:20:30;8.27;;;5.25;;
70832;SDS011;71099;59.528;17.886;2024-03-22T10:22:57;9.15;;;5.45;;
70832;SDS011;71099;59.528;17.886;2024-03-22T10:25:24;6.53;;;4.50;;
70832;SDS011;71099;59.528;17.886;2024-03-22T10:27:51;9.68;;;5.18;;
70832;SDS011;71099;59.528;17.886;2024-03-22T10:30:16;9.07;;;5.45;;
70832;SDS011;71099;59.528;17.886;2024-03-22T10:32:42;6.47;;;4.90;;
70832;SDS011;71099;59.528;17.886;2024-03-22T10:35:11;6.05;;;4.45;;
70832;SDS011;71099;59.528;17.886;2024-03-22T10:37:38;8.57;;;5.00;;
70832;SDS011;71099;59.528;17.886;2024-03-22T10:40:04;10.90;;;5.28;;
70832;SDS011;71099;59.528;17.886;2024-03-22T10:42:34;11.20;;;5.53;;
70832;SDS011;71099;59.528;17.886;2024-03-22T10:45:00;9.50;;;6.05;;
70832;SDS011;71099;59.528;17.886;2024-03-22T10:47:30;8.52;;;5.53;;
70832;SDS011;71099;59.528;17.886;2024-03-22T10:52:33;9.53;;;5.30;;
70832;SDS011;71099;59.528;17.886;2024-03-22T10:55:02;8.68;;;4.65;;
70832;SDS011;71099;59.528;17.886;2024-03-22T10:57:31;8.82;;;5.82;;
70832;SDS011;71099;59.528;17.886;2024-03-22T10:59:58;8.05;;;4.97;;
70832;SDS011;71099;59.528;17.886;2024-03-22T11:02:27;7.72;;;4.95;;
70832;SDS011;71099;59.528;17.886;2024-03-22T11:04:54;9.90;;;4.60;;
70832;SDS011;71099;59.528;17.886;2024-03-22T11:07:22;6.43;;;4.28;;
70832;SDS011;71099;59.528;17.886;2024-03-22T11:09:53;8.50;;;4.40;;
70832;SDS011;71099;59.528;17.886;2024-03-22T11:12:21;9.35;;;5.43;;
70832;SDS011;71099;59.528;17.886;2024-03-22T11:14:46;8.70;;;5.13;;
70832;SDS011;71099;59.528;17.886;2024-03-22T11:17:12;8.48;;;4.38;;
70832;SDS011;71099;59.528;17.886;2024-03-22T11:19:38;9.35;;;5.18;;
70832;SDS011;71099;59.528;17.886;2024-03-22T11:22:06;7.80;;;5.28;;
70832;SDS011;71099;59.528;17.886;2024-03-22T11:24:32;11.15;;;5.53;;
70832;SDS011;71099;59.528;17.886;2024-03-22T11:26:58;7.55;;;5.70;;
70832;SDS011;71099;59.528;17.886;2024-03-22T11:29:24;10.00;;;5.53;;
70832;SDS011;71099;59.528;17.886;2024-03-22T11:31:50;8.57;;;5.97;;
70832;SDS011;71099;59.528;17.886;2024-03-22T11:34:15;8.13;;;4.80;;
70832;SDS011;71099;59.528;17.886;2024-03-22T11:36:40;6.20;;;4.03;;
70832;SDS011;71099;59.528;17.886;2024-03-22T11:39:06;6.82;;;4.75;;
70832;SDS011;71099;59.528;17.886;2024-03-22T11:41:32;6.97;;;4.25;;
70832;SDS011;71099;59.528;17.886;2024-03-22T11:43:59;7.93;;;4.82;;
70832;SDS011;71099;59.528;17.886;2024-03-22T11:46:26;6.85;;;4.53;;
70832;SDS011;71099;59.528;17.886;2024-03-22T11:48:53;7.32;;;4.82;;
70832;SDS011;71099;59.528;17.886;2024-03-22T11:51:19;6.75;;;4.38;;
70832;SDS011;71099;59.528;17.886;2024-03-22T11:53:51;7.88;;;4.68;;
70832;SDS011;71099;59.528;17.886;2024-03-22T11:56:20;5.07;;;3.70;;
70832;SDS011;71099;59.528;17.886;2024-03-22T11:58:49;3.90;;;3.17;;
70832;SDS011;71099;59.528;17.886;2024-03-22T12:01:22;6.32;;;3.83;;
70832;SDS011;71099;59.528;17.886;2024-03-22T12:03:47;5.55;;;3.75;;
70832;SDS011;71099;59.528;17.886;2024-03-22T12:06:14;7.57;;;4.07;;
70832;SDS011;71099;59.528;17.886;2024-03-22T12:08:40;6.30;;;3.88;;
70832;SDS011;71099;59.528;17.886;2024-03-22T12:11:07;5.43;;;3.38;;
70832;SDS011;71099;59.528;17.886;2024-03-22T12:13:34;5.70;;;3.10;;
70832;SDS011;71099;59.528;17.886;2024-03-22T12:16:00;7.43;;;3.60;;
70832;SDS011;71099;59.528;17.886;2024-03-22T12:18:26;5.82;;;3.42;;
70832;SDS011;71099;59.528;17.886;2024-03-22T12:20:51;5.10;;;2.80;;
70832;SDS011;71099;59.528;17.886;2024-03-22T12:23:17;4.22;;;2.83;;
70832;SDS011;71099;59.528;17.886;2024-03-22T12:25:42;3.60;;;2.90;;
70832;SDS011;71099;59.528;17.886;2024-03-22T12:28:07;3.50;;;2.50;;
70832;SDS011;71099;59.528;17.886;2024-03-22T12:30:33;3.60;;;2.75;;
70832;SDS011;71099;59.528;17.886;2024-03-22T12:32:58;3.80;;;2.40;;
70832;SDS011;71099;59.528;17.886;2024-03-22T12:35:24;4.95;;;2.10;;
70832;SDS011;71099;59.528;17.886;2024-03-22T12:37:50;5.60;;;2.55;;
70832;SDS011;71099;59.528;17.886;2024-03-22T12:40:16;3.38;;;2.58;;
70832;SDS011;71099;59.528;17.886;2024-03-22T12:42:41;2.50;;;1.98;;
70832;SDS011;71099;59.528;17.886;2024-03-22T12:45:07;2.63;;;2.10;;
70832;SDS011;71099;59.528;17.886;2024-03-22T12:47:33;4.03;;;2.25;;
70832;SDS011;71099;59.528;17.886;2024-03-22T12:49:58;3.72;;;2.20;;
70832;SDS011;71099;59.528;17.886;2024-03-22T12:52:24;5.07;;;2.20;;
70832;SDS011;71099;59.528;17.886;2024-03-22T12:54:49;9.70;;;3.15;;
70832;SDS011;71099;59.528;17.886;2024-03-22T12:57:15;2.78;;;2.15;;
70832;SDS011;71099;59.528;17.886;2024-03-22T12:59:40;2.03;;;1.80;;
70832;SDS011;71099;59.528;17.886;2024-03-22T13:02:07;5.15;;;2.10;;
70832;SDS011;71099;59.528;17.886;2024-03-22T13:04:33;8.88;;;2.72;;
70832;SDS011;71099;59.528;17.886;2024-03-22T13:06:58;3.90;;;2.30;;
70832;SDS011;71099;59.528;17.886;2024-03-22T13:09:24;6.93;;;3.30;;
70832;SDS011;71099;59.528;17.886;2024-03-22T13:11:49;21.25;;;5.95;;
70832;SDS011;71099;59.528;17.886;2024-03-22T13:14:15;7.93;;;3.13;;
70832;SDS011;71099;59.528;17.886;2024-03-22T13:16:40;3.53;;;2.58;;
70832;SDS011;71099;59.528;17.886;2024-03-22T13:19:06;6.18;;;2.60;;
70832;SDS011;71099;59.528;17.886;2024-03-22T13:21:37;3.17;;;2.33;;
70832;SDS011;71099;59.528;17.886;2024-03-22T13:24:05;2.47;;;1.75;;
70832;SDS011;71099;59.528;17.886;2024-03-22T13:26:31;3.35;;;2.25;;
70832;SDS011;71099;59.528;17.886;2024-03-22T13:28:56;2.75;;;1.95;;
70832;SDS011;71099;59.528;17.886;2024-03-22T13:31:22;4.93;;;2.40;;
70832;SDS011;71099;59.528;17.886;2024-03-22T13:33:47;2.58;;;1.95;;
70832;SDS011;71099;59.528;17.886;2024-03-22T13:36:13;4.57;;;1.90;;
70832;SDS011;71099;59.528;17.886;2024-03-22T13:38:38;4.65;;;1.90;;
70832;SDS011;71099;59.528;17.886;2024-03-22T13:41:03;3.80;;;1.95;;
70832;SDS011;71099;59.528;17.886;2024-03-22T13:43:31;2.20;;;2.00;;
70832;SDS011;71099;59.528;17.886;2024-03-22T13:45:56;5.88;;;2.53;;
70832;SDS011;71099;59.528;17.886;2024-03-22T13:48:23;4.25;;;3.05;;
70832;SDS011;71099;59.528;17.886;2024-03-22T13:50:55;4.25;;;2.72;;
70832;SDS011;71099;59.528;17.886;2024-03-22T13:53:21;2.40;;;2.20;;
70832;SDS011;71099;59.528;17.886;2024-03-22T13:55:47;2.58;;;2.38;;
70832;SDS011;71099;59.528;17.886;2024-03-22T13:58:13;4.25;;;1.77;;
70832;SDS011;71099;59.528;17.886;2024-03-22T14:00:39;4.88;;;2.10;;
70832;SDS011;71099;59.528;17.886;2024-03-22T14:03:04;5.70;;;1.90;;
70832;SDS011;71099;59.528;17.886;2024-03-22T14:05:30;2.58;;;1.63;;
70832;SDS011;71099;59.528;17.886;2024-03-22T14:07:56;3.40;;;1.50;;
70832;SDS011;71099;59.528;17.886;2024-03-22T14:10:22;3.47;;;1.83;;
70832;SDS011;71099;59.528;17.886;2024-03-22T14:12:50;3.97;;;1.58;;
70832;SDS011;71099;59.528;17.886;2024-03-22T14:15:15;7.32;;;2.70;;
70832;SDS011;71099;59.528;17.886;2024-03-22T14:17:41;4.70;;;2.22;;
70832;SDS011;71099;59.528;17.886;2024-03-22T14:20:07;6.65;;;1.58;;
70832;SDS011;71099;59.528;17.886;2024-03-22T14:22:39;3.65;;;1.42;;
70832;SDS011;71099;59.528;17.886;2024-03-22T14:25:05;3.53;;;1.33;;
70832;SDS011;71099;59.528;17.886;2024-03-22T14:27:31;4.75;;;2.85;;